createdAt,value
2023-03-02T00:03:01.701Z,100.00
2023-03-02T00:08:05.274Z,100.00
2023-03-02T00:13:06.850Z,100.00
2023-03-02T00:18:08.459Z,100.00
2023-03-02T00:23:11.562Z,100.00
2023-03-02T00:28:13.117Z,100.00
2023-03-02T00:33:14.932Z,100.00
2023-03-02T00:38:17.809Z,100.00
2023-03-02T00:43:19.392Z,100.00
2023-03-02T00:48:20.908Z,100.00
2023-03-02T00:53:23.794Z,100.00
2023-03-02T00:58:25.977Z,100.00
2023-03-02T01:03:27.526Z,100.00
2023-03-02T01:08:30.884Z,100.00
2023-03-02T01:13:32.438Z,100.00
2023-03-02T01:18:34.791Z,100.00
2023-03-02T01:23:37.698Z,100.00
2023-03-02T01:28:39.203Z,100.00
2023-03-02T01:33:40.757Z,100.00
2023-03-02T01:38:43.945Z,100.00
2023-03-02T01:43:45.473Z,100.00
2023-03-02T01:48:50.356Z,100.00
2023-03-02T01:53:56.389Z,100.00
2023-03-02T01:59:00.816Z,100.00
2023-03-02T02:04:02.584Z,100.00
2023-03-02T02:09:07.805Z,100.00
2023-03-02T02:14:09.878Z,100.00
2023-03-02T02:19:23.692Z,100.00
2023-03-02T02:24:33.361Z,100.00
2023-03-02T02:29:41.325Z,100.00
2023-03-02T02:34:47.900Z,100.00
2023-03-02T02:39:50.316Z,100.00
2023-03-02T02:44:56.230Z,100.00
2023-03-02T02:49:58.707Z,100.00
2023-03-02T02:55:00.286Z,100.00
2023-03-02T03:00:03.493Z,100.00
2023-03-02T03:05:05.818Z,100.00
2023-03-02T03:10:14.042Z,100.00
2023-03-02T03:15:17.238Z,100.00
2023-03-02T03:20:20.093Z,100.00
2023-03-02T03:25:25.406Z,100.00
2023-03-02T03:30:28.372Z,100.00
2023-03-02T03:35:29.956Z,100.00
2023-03-02T03:40:31.947Z,100.00
2023-03-02T03:45:34.951Z,100.00
2023-03-02T03:50:36.654Z,100.00
2023-03-02T03:55:38.182Z,100.00
2023-03-02T04:00:41.052Z,100.00
2023-03-02T04:05:42.732Z,100.00
2023-03-02T04:10:44.868Z,100.00
2023-03-02T04:15:47.800Z,100.00
2023-03-02T04:20:49.268Z,100.00
2023-03-02T04:25:50.782Z,100.00
2023-03-02T04:30:53.774Z,100.00
2023-03-02T04:35:55.336Z,100.00
2023-03-02T04:40:57.574Z,100.00
2023-03-02T04:46:00.447Z,100.00
2023-03-02T04:51:02.000Z,100.00
2023-03-02T04:56:04.021Z,100.00
2023-03-02T05:01:06.932Z,100.00
2023-03-02T05:06:08.910Z,100.00
2023-03-02T05:11:12.460Z,100.00
2023-03-02T05:16:15.607Z,100.00
2023-03-02T05:21:18.317Z,100.00
2023-03-02T05:26:19.898Z,100.00
2023-03-02T05:31:27.475Z,100.00
2023-03-02T05:36:28.934Z,100.00
2023-03-02T05:41:30.577Z,100.00
2023-03-02T05:46:33.876Z,100.00
2023-03-02T05:51:35.595Z,100.00
2023-03-02T05:56:37.090Z,100.00
2023-03-02T06:01:40.034Z,100.00
2023-03-02T06:06:41.531Z,100.00
2023-03-02T06:11:43.035Z,100.00
2023-03-02T06:16:45.969Z,100.00
2023-03-02T06:21:47.522Z,100.00
2023-03-02T06:26:49.056Z,100.00
2023-03-02T06:31:52.174Z,100.00
2023-03-02T06:36:53.837Z,100.00
2023-03-02T06:41:55.438Z,100.00
2023-03-02T06:46:58.370Z,100.00
2023-03-02T06:51:59.886Z,100.00
2023-03-02T06:57:01.454Z,100.00
2023-03-02T07:02:04.411Z,100.00
2023-03-02T07:07:05.913Z,100.00
2023-03-02T07:12:07.584Z,100.00
2023-03-02T07:17:10.569Z,100.00
2023-03-02T07:22:12.165Z,100.00
2023-03-02T07:27:13.748Z,100.00
2023-03-02T07:32:16.724Z,100.00
2023-03-02T07:37:18.208Z,100.00
2023-03-02T07:42:19.969Z,100.00
2023-03-02T07:47:22.940Z,100.00
2023-03-02T07:52:24.620Z,100.00
2023-03-02T07:57:26.186Z,100.00
2023-03-02T08:02:29.093Z,100.00
2023-03-02T08:07:30.707Z,100.00
2023-03-02T08:12:32.373Z,100.00
2023-03-02T08:17:35.226Z,100.00
2023-03-02T08:22:36.668Z,100.00
2023-03-02T08:27:38.190Z,100.00
2023-03-02T08:32:41.212Z,100.00
2023-03-02T08:37:42.862Z,100.00
2023-03-02T08:42:44.405Z,100.00
2023-03-02T08:47:47.290Z,100.00
2023-03-02T08:52:48.852Z,100.00
2023-03-02T08:57:50.440Z,100.00
2023-03-02T09:02:53.334Z,100.00
2023-03-02T09:07:55.886Z,100.00
2023-03-02T09:12:57.368Z,100.00
2023-03-02T09:18:00.398Z,100.00
2023-03-02T09:23:01.943Z,100.00
2023-03-02T09:28:03.548Z,100.00
2023-03-02T09:33:06.474Z,100.00
2023-03-02T09:38:08.066Z,100.00
2023-03-02T09:43:22.879Z,100.00
2023-03-02T09:48:38.399Z,100.00
2023-03-02T09:53:47.209Z,100.00
2023-03-02T09:58:55.726Z,100.00
2023-03-02T10:04:08.080Z,100.00
2023-03-02T10:09:10.556Z,100.00
2023-03-02T10:14:17.878Z,100.00
2023-03-02T10:19:25.047Z,99.36
2023-03-02T10:24:35.020Z,100.00
2023-03-02T10:29:47.281Z,100.00
2023-03-02T10:34:52.326Z,99.45
2023-03-02T10:39:54.422Z,100.00
2023-03-02T10:45:00.656Z,96.93
2023-03-02T10:50:03.631Z,96.08
2023-03-02T10:55:12.503Z,94.99
2023-03-02T11:00:18.092Z,93.98
2023-03-02T11:05:32.819Z,95.55
2023-03-02T11:10:36.282Z,95.13
2023-03-02T11:15:45.720Z,94.58
2023-03-02T11:20:52.671Z,91.38
2023-03-02T11:25:57.676Z,90.44
2023-03-02T11:31:02.434Z,93.49
2023-03-02T11:36:12.409Z,93.60
2023-03-02T11:41:24.530Z,92.02
2023-03-02T11:46:28.300Z,92.43
2023-03-02T11:51:35.513Z,91.27
2023-03-02T11:56:39.495Z,89.69
2023-03-02T12:01:42.318Z,87.76
2023-03-02T12:06:45.523Z,90.68
2023-03-02T12:11:55.099Z,90.63
2023-03-02T12:17:17.531Z,91.15
2023-03-02T12:22:30.038Z,90.02
2023-03-02T12:27:36.471Z,90.58
2023-03-02T12:32:38.298Z,88.06
2023-03-02T12:37:47.057Z,90.77
2023-03-02T12:43:12.421Z,89.90
2023-03-02T12:48:26.412Z,94.27
2023-03-02T12:53:29.796Z,91.91
2023-03-02T12:58:31.318Z,90.29
2023-03-02T13:03:33.069Z,85.89
2023-03-02T13:08:36.234Z,86.95
2023-03-02T13:13:40.824Z,88.68
2023-03-02T13:18:42.556Z,87.77
2023-03-02T13:23:47.712Z,89.82
2023-03-02T13:28:59.737Z,88.25
2023-03-02T13:34:01.607Z,90.30
2023-03-02T13:39:07.566Z,90.81
2023-03-02T13:44:18.553Z,91.21
2023-03-02T13:49:28.364Z,91.21
2023-03-02T13:54:34.169Z,93.15
2023-03-02T13:59:35.791Z,93.16
2023-03-02T14:04:37.350Z,93.37
2023-03-02T14:09:40.272Z,95.17
2023-03-02T14:14:43.289Z,93.25
2023-03-02T14:19:45.970Z,93.27
2023-03-02T14:24:49.183Z,94.77
2023-03-02T14:29:50.798Z,92.81
2023-03-02T14:34:52.451Z,93.43
2023-03-02T14:39:55.832Z,93.62
2023-03-02T14:44:58.520Z,92.56
2023-03-02T14:50:01.271Z,90.37
2023-03-02T14:55:07.733Z,91.78
2023-03-02T15:00:14.257Z,90.79
2023-03-02T15:05:15.966Z,88.25
2023-03-02T15:10:21.237Z,89.92
2023-03-02T15:15:22.726Z,89.34
2023-03-02T15:20:24.292Z,88.03
2023-03-02T15:25:27.777Z,86.61
2023-03-02T15:30:29.381Z,87.61
2023-03-02T15:35:31.025Z,87.31
2023-03-02T15:40:35.327Z,87.71
2023-03-02T15:45:37.009Z,87.81
2023-03-02T15:50:38.623Z,86.88
2023-03-02T15:55:41.704Z,89.70
2023-03-02T16:00:43.464Z,88.59
2023-03-02T16:05:45.301Z,88.46
2023-03-02T16:10:56.867Z,89.31
2023-03-02T16:16:00.803Z,88.96
2023-03-02T16:21:02.282Z,91.97
2023-03-02T16:26:09.458Z,92.80
2023-03-02T16:31:13.129Z,94.02
2023-03-02T16:36:14.738Z,93.45
2023-03-02T16:41:19.554Z,95.32
2023-03-02T16:46:22.176Z,94.29
2023-03-02T16:51:23.742Z,96.34
2023-03-02T16:56:26.641Z,97.37
2023-03-02T17:01:28.556Z,97.71
2023-03-02T17:06:30.169Z,97.94
2023-03-02T17:11:33.076Z,97.45
2023-03-02T17:16:34.698Z,99.43
2023-03-02T17:21:36.257Z,100.00
2023-03-02T17:26:39.131Z,100.00
2023-03-02T17:31:40.745Z,100.00
2023-03-02T17:36:42.373Z,100.00
2023-03-02T17:41:45.250Z,100.00
2023-03-02T17:46:46.845Z,100.00
2023-03-02T17:51:48.407Z,100.00
2023-03-02T17:56:51.557Z,100.00
2023-03-02T18:01:53.080Z,100.00
2023-03-02T18:06:54.634Z,100.00
2023-03-02T18:11:57.530Z,100.00
2023-03-02T18:16:59.306Z,100.00
2023-03-02T18:22:01.160Z,100.00
2023-03-02T18:27:04.147Z,100.00
2023-03-02T18:32:05.935Z,100.00
2023-03-02T18:37:07.859Z,100.00
2023-03-02T18:42:12.750Z,100.00
2023-03-02T18:47:16.526Z,100.00
2023-03-02T18:52:18.733Z,100.00
2023-03-02T18:57:21.608Z,100.00
2023-03-02T19:02:23.265Z,100.00
2023-03-02T19:07:24.983Z,100.00
2023-03-02T19:12:27.926Z,100.00
2023-03-02T19:17:29.498Z,100.00
2023-03-02T19:22:31.082Z,100.00
2023-03-02T19:27:34.193Z,100.00
2023-03-02T19:32:37.422Z,100.00
2023-03-02T19:37:38.983Z,100.00
2023-03-02T19:42:41.818Z,100.00
2023-03-02T19:47:43.443Z,100.00
2023-03-02T19:52:45.041Z,100.00
2023-03-02T19:57:48.376Z,100.00
2023-03-02T20:02:49.924Z,100.00
2023-03-02T20:07:52.007Z,100.00
2023-03-02T20:12:55.027Z,100.00
2023-03-02T20:17:57.478Z,100.00
2023-03-02T20:22:59.373Z,100.00
2023-03-02T20:28:03.762Z,100.00
2023-03-02T20:33:06.826Z,100.00
2023-03-02T20:38:10.932Z,100.00
2023-03-02T20:43:14.132Z,100.00
2023-03-02T20:48:15.808Z,100.00
2023-03-02T20:53:18.125Z,100.00
2023-03-02T20:58:21.103Z,100.00
2023-03-02T21:03:22.780Z,100.00
2023-03-02T21:08:24.696Z,100.00
2023-03-02T21:13:27.579Z,100.00
2023-03-02T21:18:29.194Z,100.00
2023-03-02T21:23:30.788Z,100.00
2023-03-02T21:28:33.597Z,100.00
2023-03-02T21:33:35.226Z,100.00
2023-03-02T21:38:36.750Z,100.00
2023-03-02T21:43:39.674Z,100.00
2023-03-02T21:48:41.484Z,100.00
2023-03-02T21:53:43.000Z,100.00
2023-03-02T21:58:46.610Z,100.00
2023-03-02T22:03:48.295Z,100.00
2023-03-02T22:08:50.507Z,100.00
2023-03-02T22:13:55.411Z,100.00
2023-03-02T22:18:58.495Z,100.00
2023-03-02T22:24:20.514Z,100.00
2023-03-02T22:29:25.522Z,100.00
2023-03-02T22:34:30.592Z,100.00
2023-03-02T22:39:33.457Z,100.00
2023-03-02T22:44:36.415Z,100.00
2023-03-02T22:49:37.859Z,100.00
2023-03-02T22:54:39.468Z,100.00
2023-03-02T22:59:42.351Z,100.00
2023-03-02T23:04:48.104Z,100.00
2023-03-02T23:09:49.675Z,100.00
2023-03-02T23:14:54.652Z,100.00
2023-03-02T23:19:56.273Z,100.00
2023-03-02T23:24:57.801Z,100.00
2023-03-02T23:30:00.741Z,100.00
2023-03-02T23:35:02.275Z,100.00
2023-03-02T23:40:04.559Z,100.00
2023-03-02T23:45:09.289Z,100.00
2023-03-02T23:50:12.615Z,100.00
2023-03-02T23:55:14.150Z,100.00
